Terminal Aerodrome Forecast
Issued by NWS

Home | Current Version | Previous Version | Text Only | Print | Product List | Glossary On
Versions: 1 2 3 4 5 6 7 8 9 10 11 12 13 14 15 16 17 18 19 20 21 22 23 24 25
000
FTUS43 KMPX 070520
TAFAXN
TAF
KAXN 070520Z 0706/0806 14011KT P6SM SCT030 OVC080
     FM070900 14012KT 4SM -SHRA SCT007 BKN015
     FM071500 18013G20KT P6SM BKN015 OVC040
     FM071900 22012G18KT P6SM VCSH BKN050 PROB30 0721/0724 5SM -TSRA
      BKN050CB
     FM080000 33015KT P6SM VCSH OVC025=

USA.gov is the U.S. government's official web portal to all federal, state and local government web resources and services.